createdAt,value
2019-04-10T00:01:53.676Z,3.70
2019-04-10T00:04:21.152Z,4.47
2019-04-10T00:06:48.590Z,3.83
2019-04-10T00:09:16.914Z,3.30
2019-04-10T00:11:45.109Z,4.30
2019-04-10T00:14:12.603Z,3.30
2019-04-10T00:16:40.474Z,3.83
2019-04-10T00:19:08.745Z,4.50
2019-04-10T00:21:36.149Z,4.40
2019-04-10T00:24:03.887Z,3.40
2019-04-10T00:26:31.987Z,4.47
2019-04-10T00:29:00.244Z,3.80
2019-04-10T00:31:27.715Z,4.03
2019-04-10T00:33:55.114Z,3.80
2019-04-10T00:36:22.471Z,3.47
2019-04-10T00:38:50.357Z,3.47
2019-04-10T00:41:17.690Z,3.40
2019-04-10T00:43:45.144Z,3.97
2019-04-10T00:46:13.623Z,3.90
2019-04-10T00:48:41.769Z,3.57
2019-04-10T00:51:09.457Z,3.90
2019-04-10T00:53:37.159Z,3.97
2019-04-10T00:56:04.641Z,3.57
2019-04-10T00:58:31.933Z,3.53
2019-04-10T01:00:59.305Z,2.80
2019-04-10T01:03:46.730Z,4.27
2019-04-10T01:06:14.164Z,3.50
2019-04-10T01:08:42.643Z,4.13
2019-04-10T01:11:10.707Z,2.93
2019-04-10T01:13:38.017Z,3.83
2019-04-10T01:16:05.325Z,3.10
2019-04-10T01:18:32.777Z,3.60
2019-04-10T01:21:00.277Z,3.43
2019-04-10T01:23:28.795Z,3.60
2019-04-10T01:25:56.850Z,3.13
2019-04-10T01:28:24.769Z,3.00
2019-04-10T01:30:52.805Z,3.60
2019-04-10T01:33:20.685Z,3.50
2019-04-10T01:35:48.788Z,3.17
2019-04-10T01:38:16.319Z,3.60
2019-04-10T01:40:43.672Z,3.43
2019-04-10T01:43:14.554Z,4.13
2019-04-10T01:45:40.018Z,4.10
2019-04-10T01:48:07.921Z,3.53
2019-04-10T01:50:35.290Z,2.83
2019-04-10T01:53:03.691Z,3.97
2019-04-10T01:55:32.497Z,3.10
2019-04-10T01:58:01.620Z,3.63
2019-04-10T02:00:29.847Z,3.27
2019-04-10T02:02:57.954Z,3.03
2019-04-10T02:05:25.405Z,2.97
2019-04-10T02:08:02.355Z,3.20
2019-04-10T02:10:22.113Z,3.13
2019-04-10T02:12:50.486Z,3.30
2019-04-10T02:15:18.198Z,4.00
2019-04-10T02:17:46.622Z,3.20
2019-04-10T02:20:14.578Z,2.87
2019-04-10T02:22:41.739Z,3.20
2019-04-10T02:25:08.768Z,3.07
2019-04-10T02:27:35.811Z,2.97
2019-04-10T02:30:02.865Z,2.70
2019-04-10T02:32:29.900Z,3.03
2019-04-10T02:34:57.533Z,3.23
2019-04-10T02:37:27.020Z,2.90
2019-04-10T02:39:57.953Z,2.47
2019-04-10T02:42:22.922Z,2.80
2019-04-10T02:44:50.426Z,3.40
2019-04-10T02:47:19.214Z,2.73
2019-04-10T02:49:47.174Z,2.87
2019-04-10T02:52:14.871Z,2.73
2019-04-10T02:54:43.535Z,2.73
2019-04-10T02:57:11.401Z,2.73
2019-04-10T02:59:39.791Z,3.33
2019-04-10T03:02:08.337Z,2.90
2019-04-10T03:04:37.081Z,2.60
2019-04-10T03:07:04.481Z,2.70
2019-04-10T03:09:44.478Z,3.17
2019-04-10T03:12:00.414Z,2.33
2019-04-10T03:14:28.453Z,2.90
2019-04-10T03:16:55.627Z,3.50
2019-04-10T03:19:22.687Z,2.30
2019-04-10T03:21:49.806Z,3.07
2019-04-10T03:24:16.823Z,2.53
2019-04-10T03:26:43.858Z,2.40
2019-04-10T03:29:11.618Z,2.73
2019-04-10T03:31:39.598Z,2.80
2019-04-10T03:34:21.100Z,2.67
2019-04-10T03:36:47.589Z,2.63
2019-04-10T03:39:15.468Z,2.90
2019-04-10T03:41:43.992Z,3.10
2019-04-10T03:44:11.611Z,2.73
2019-04-10T03:46:41.059Z,2.70
2019-04-10T03:49:09.521Z,2.43
2019-04-10T03:51:37.048Z,2.67
2019-04-10T03:54:04.810Z,3.00
2019-04-10T03:56:33.873Z,3.13
2019-04-10T03:59:02.157Z,2.30
2019-04-10T04:01:29.777Z,2.73
2019-04-10T04:03:57.290Z,3.10
2019-04-10T04:06:25.795Z,2.60
2019-04-10T04:09:03.233Z,2.37
2019-04-10T04:11:22.434Z,2.37
2019-04-10T04:13:50.078Z,2.23
2019-04-10T04:16:24.676Z,2.80
2019-04-10T04:18:53.375Z,2.50
2019-04-10T04:21:20.965Z,2.90
2019-04-10T04:23:48.421Z,2.47
2019-04-10T04:26:15.875Z,2.40
2019-04-10T04:28:44.007Z,2.40
2019-04-10T04:31:15.950Z,2.90
2019-04-10T04:33:44.754Z,3.70
2019-04-10T04:36:12.766Z,2.40
2019-04-10T04:38:41.005Z,2.40
2019-04-10T04:41:09.028Z,2.20
2019-04-10T04:43:37.064Z,2.30
2019-04-10T04:46:04.537Z,2.50
2019-04-10T04:48:31.922Z,2.20
2019-04-10T04:50:59.877Z,2.37
2019-04-10T04:53:27.990Z,1.87
2019-04-10T04:55:55.507Z,2.30
2019-04-10T04:58:22.903Z,1.83
2019-04-10T05:00:50.861Z,1.73
2019-04-10T05:03:18.564Z,2.03
2019-04-10T05:05:46.031Z,1.80
2019-04-10T05:08:13.487Z,1.50
2019-04-10T05:10:41.849Z,1.90
2019-04-10T05:13:10.211Z,2.00
2019-04-10T05:15:37.700Z,1.47
2019-04-10T05:18:06.163Z,1.70
2019-04-10T05:20:44.207Z,1.80
2019-04-10T05:23:03.982Z,3.33
2019-04-10T05:25:31.656Z,2.97
2019-04-10T05:27:59.417Z,2.90
2019-04-10T05:30:27.205Z,2.40
2019-04-10T05:32:55.679Z,2.27
2019-04-10T05:35:23.539Z,2.67
2019-04-10T05:37:51.994Z,2.13
2019-04-10T05:40:20.711Z,2.30
2019-04-10T05:42:49.055Z,2.67
2019-04-10T05:45:17.040Z,2.40
2019-04-10T05:47:44.440Z,2.47
2019-04-10T05:50:11.579Z,1.83
2019-04-10T05:52:39.586Z,2.70
2019-04-10T05:55:14.121Z,2.50
2019-04-10T05:57:42.654Z,2.30
2019-04-10T06:00:10.490Z,2.30
2019-04-10T06:02:37.957Z,2.47
2019-04-10T06:05:05.730Z,2.90
2019-04-10T06:07:32.929Z,2.13
2019-04-10T06:10:05.148Z,2.50
2019-04-10T06:12:30.571Z,1.93
2019-04-10T06:14:58.809Z,1.93
2019-04-10T06:17:26.846Z,2.40
2019-04-10T06:19:54.527Z,2.27
2019-04-10T06:22:23.391Z,2.40
2019-04-10T06:24:52.142Z,3.43
2019-04-10T06:27:20.461Z,2.83
2019-04-10T06:29:47.694Z,3.20
2019-04-10T06:32:15.056Z,2.87
2019-04-10T06:34:42.574Z,2.33
2019-04-10T06:37:10.197Z,2.40
2019-04-10T06:39:37.837Z,2.40
2019-04-10T06:42:06.512Z,2.50
2019-04-10T06:44:34.230Z,2.07
2019-04-10T06:47:02.175Z,1.93
2019-04-10T06:49:31.115Z,2.53
2019-04-10T06:51:58.496Z,2.37
2019-04-10T06:54:26.744Z,2.30
2019-04-10T06:56:54.565Z,2.07
2019-04-10T06:59:23.275Z,2.40
2019-04-10T07:01:54.561Z,2.97
2019-04-10T07:04:24.225Z,2.30
2019-04-10T07:06:58.095Z,2.40
2019-04-10T07:09:24.795Z,2.30
2019-04-10T07:11:55.561Z,2.50
2019-04-10T07:14:20.473Z,4.20
2019-04-10T07:16:48.551Z,2.10
2019-04-10T07:19:15.985Z,1.87
2019-04-10T07:21:43.336Z,2.60
2019-04-10T07:24:12.168Z,1.97
2019-04-10T07:26:43.421Z,2.57
2019-04-10T07:29:09.004Z,2.03
2019-04-10T07:31:37.936Z,2.30
2019-04-10T07:34:05.344Z,2.07
2019-04-10T07:36:32.894Z,2.10
2019-04-10T07:39:01.353Z,2.30
2019-04-10T07:41:29.371Z,2.00
2019-04-10T07:43:57.319Z,2.00
2019-04-10T07:46:26.250Z,2.17
2019-04-10T07:48:54.528Z,1.90
2019-04-10T07:51:21.921Z,1.60
2019-04-10T07:53:49.188Z,1.90
2019-04-10T07:56:19.262Z,2.30
2019-04-10T07:58:46.052Z,2.43
2019-04-10T08:01:14.058Z,1.73
2019-04-10T08:03:41.679Z,1.73
2019-04-10T08:06:09.218Z,2.00
2019-04-10T08:08:36.623Z,1.67
2019-04-10T08:11:04.944Z,2.00
2019-04-10T08:13:33.110Z,1.80
2019-04-10T08:16:00.739Z,1.43
2019-04-10T08:18:28.299Z,1.80
2019-04-10T08:20:57.257Z,1.80
2019-04-10T08:23:25.901Z,1.63
2019-04-10T08:25:53.717Z,1.90
2019-04-10T08:28:22.032Z,1.80
2019-04-10T08:30:50.482Z,1.90
2019-04-10T08:33:17.892Z,1.83
2019-04-10T08:35:45.446Z,1.87
2019-04-10T08:38:13.138Z,1.90
2019-04-10T08:40:40.457Z,2.13
2019-04-10T08:43:08.327Z,1.80
2019-04-10T08:45:44.980Z,1.40
2019-04-10T08:48:05.770Z,1.80
2019-04-10T08:50:34.350Z,2.00
2019-04-10T08:53:02.089Z,1.80
2019-04-10T08:55:30.340Z,1.57
2019-04-10T08:57:58.548Z,1.70
2019-04-10T09:00:26.797Z,1.20
2019-04-10T09:02:54.760Z,1.70
2019-04-10T09:05:23.838Z,1.97
2019-04-10T09:07:51.087Z,2.13
2019-04-10T09:10:18.558Z,1.60
2019-04-10T09:12:45.799Z,1.50
2019-04-10T09:15:13.861Z,1.50
2019-04-10T09:17:41.756Z,1.80
2019-04-10T09:20:09.296Z,1.30
2019-04-10T09:22:57.173Z,2.03
2019-04-10T09:25:06.944Z,1.57
2019-04-10T09:27:34.325Z,1.60
2019-04-10T09:30:02.727Z,1.70
2019-04-10T09:32:30.676Z,1.90
2019-04-10T09:34:58.287Z,1.77
2019-04-10T09:37:26.099Z,1.80
2019-04-10T09:39:54.645Z,1.80
2019-04-10T09:42:23.513Z,1.50
2019-04-10T09:44:51.016Z,1.60
2019-04-10T09:47:18.421Z,2.10
2019-04-10T09:49:47.042Z,1.43
2019-04-10T09:52:14.576Z,1.50
2019-04-10T09:54:42.520Z,1.70
2019-04-10T09:57:11.104Z,1.67
2019-04-10T09:59:40.855Z,1.57
2019-04-10T10:02:09.119Z,1.80
2019-04-10T10:04:37.553Z,1.80
2019-04-10T10:07:05.402Z,2.10
2019-04-10T10:09:32.762Z,1.77
2019-04-10T10:12:00.986Z,2.47
2019-04-10T10:14:28.912Z,1.40
2019-04-10T10:16:58.039Z,1.90
2019-04-10T10:19:25.943Z,3.47
2019-04-10T10:21:55.401Z,3.40
2019-04-10T10:24:23.078Z,3.23
2019-04-10T10:26:52.144Z,2.80
2019-04-10T10:29:19.752Z,3.23
2019-04-10T10:31:52.196Z,2.30
2019-04-10T10:34:20.610Z,3.40
2019-04-10T10:36:52.869Z,4.37
2019-04-10T10:39:20.976Z,2.40
2019-04-10T10:41:49.145Z,4.03
2019-04-10T10:44:17.315Z,2.63
2019-04-10T10:46:47.370Z,2.73
2019-04-10T10:49:15.893Z,2.60
2019-04-10T10:51:43.373Z,2.53
2019-04-10T10:54:12.595Z,2.60
2019-04-10T10:56:39.925Z,2.90
2019-04-10T10:59:07.096Z,3.17
2019-04-10T11:01:34.532Z,3.40
2019-04-10T11:04:02.578Z,3.87
2019-04-10T11:06:30.912Z,2.73
2019-04-10T11:08:57.991Z,3.13
2019-04-10T11:11:25.498Z,3.10
2019-04-10T11:13:52.837Z,2.77
2019-04-10T11:16:20.684Z,2.70
2019-04-10T11:18:48.444Z,2.47
2019-04-10T11:21:16.781Z,3.67
2019-04-10T11:23:44.301Z,2.57
2019-04-10T11:26:14.066Z,3.33
2019-04-10T11:28:41.872Z,2.73
2019-04-10T11:31:09.434Z,2.70
2019-04-10T11:33:37.307Z,2.57
2019-04-10T11:36:06.411Z,2.40
2019-04-10T11:38:35.652Z,2.77
2019-04-10T11:41:05.937Z,3.17
2019-04-10T11:43:33.644Z,2.63
2019-04-10T11:46:02.717Z,3.30
2019-04-10T11:48:30.827Z,2.97
2019-04-10T11:51:00.627Z,5.00
2019-04-10T11:53:27.361Z,2.60
2019-04-10T11:55:56.992Z,2.97
2019-04-10T11:58:28.178Z,2.40
2019-04-10T12:03:24.599Z,2.77
2019-04-10T12:05:55.562Z,3.00
2019-04-10T12:13:22.006Z,2.60
2019-04-10T12:15:50.436Z,3.33
2019-04-10T12:18:18.295Z,1.90
2019-04-10T12:20:45.714Z,2.80
2019-04-10T12:23:13.056Z,2.20
2019-04-10T12:25:40.356Z,3.27
2019-04-10T12:28:07.654Z,2.93
2019-04-10T12:30:35.299Z,2.30
2019-04-10T12:33:03.238Z,2.33
2019-04-10T12:35:31.936Z,2.47
2019-04-10T12:38:02.936Z,2.33
2019-04-10T12:40:29.359Z,2.27
2019-04-10T12:42:56.710Z,2.20
2019-04-10T12:45:24.310Z,2.27
2019-04-10T12:47:52.413Z,2.13
2019-04-10T12:50:20.398Z,2.73
2019-04-10T12:52:51.266Z,2.10
2019-04-10T12:55:18.611Z,2.30
2019-04-10T12:57:49.112Z,1.93
2019-04-10T13:00:20.565Z,2.77
2019-04-10T13:02:47.814Z,2.40
2019-04-10T13:05:15.126Z,2.10
2019-04-10T13:07:43.484Z,2.20
2019-04-10T13:10:10.903Z,2.20
2019-04-10T13:12:37.939Z,1.90
2019-04-10T13:15:05.464Z,2.23
2019-04-10T13:17:33.184Z,2.20
2019-04-10T13:20:01.783Z,2.00
2019-04-10T13:22:29.416Z,1.90
2019-04-10T13:24:57.639Z,2.10
2019-04-10T13:27:25.104Z,2.37
2019-04-10T13:29:52.399Z,2.67
2019-04-10T13:32:20.158Z,2.30
2019-04-10T13:34:47.287Z,1.80
2019-04-10T13:37:15.593Z,2.47
2019-04-10T13:39:43.358Z,1.93
2019-04-10T13:42:10.907Z,2.00
2019-04-10T13:44:38.669Z,2.20
2019-04-10T13:47:07.033Z,2.00
2019-04-10T13:49:35.681Z,1.80
2019-04-10T13:52:03.659Z,2.70
2019-04-10T13:54:30.700Z,1.80
2019-04-10T13:56:58.290Z,2.63
2019-04-10T13:59:25.853Z,2.50
2019-04-10T14:01:53.427Z,2.30
2019-04-10T14:04:20.905Z,2.07
2019-04-10T14:06:49.327Z,2.00
2019-04-10T14:09:31.911Z,2.33
2019-04-10T14:11:46.324Z,2.17
2019-04-10T14:14:13.387Z,2.37
2019-04-10T14:16:41.179Z,1.83
2019-04-10T14:19:09.537Z,1.90
2019-04-10T14:21:37.360Z,2.07
2019-04-10T14:24:05.263Z,2.37
2019-04-10T14:26:50.392Z,2.00
2019-04-10T14:29:21.151Z,2.27
2019-04-10T14:32:11.302Z,2.33
2019-04-10T14:34:38.794Z,2.80
2019-04-10T14:37:07.714Z,3.27
2019-04-10T14:39:35.855Z,3.27
2019-04-10T14:42:04.344Z,3.30
2019-04-10T14:44:32.629Z,3.23
2019-04-10T14:47:00.219Z,3.00
2019-04-10T14:49:27.391Z,2.70
2019-04-10T14:51:54.733Z,3.07
2019-04-10T14:54:22.014Z,3.27
2019-04-10T14:56:49.098Z,2.17
2019-04-10T14:59:16.227Z,3.10
2019-04-10T15:01:44.214Z,2.40
2019-04-10T15:04:12.880Z,2.27
2019-04-10T15:06:40.033Z,1.93
2019-04-10T15:09:20.850Z,2.30
2019-04-10T15:11:40.580Z,2.00
2019-04-10T15:14:07.850Z,1.87
2019-04-10T15:16:34.842Z,1.83
2019-04-10T15:19:02.616Z,2.20
2019-04-10T15:21:29.797Z,2.10
2019-04-10T15:23:57.308Z,2.30
2019-04-10T15:26:24.341Z,2.30
2019-04-10T15:28:51.975Z,2.60
2019-04-10T15:31:19.400Z,3.10
2019-04-10T15:33:46.689Z,2.43
2019-04-10T15:36:13.783Z,2.07
2019-04-10T15:38:41.971Z,1.57
2019-04-10T15:41:10.526Z,2.37
2019-04-10T15:43:37.664Z,2.20
2019-04-10T15:46:04.684Z,2.20
2019-04-10T15:48:31.712Z,1.70
2019-04-10T15:50:58.754Z,1.77
2019-04-10T15:53:26.499Z,2.60
2019-04-10T15:55:53.762Z,2.40
2019-04-10T15:58:21.528Z,1.80
2019-04-10T16:00:50.222Z,2.30
2019-04-10T16:03:17.573Z,1.63
2019-04-10T16:05:45.916Z,1.97
2019-04-10T16:08:14.213Z,1.57
2019-04-10T16:11:09.962Z,2.47
2019-04-10T16:13:48.520Z,1.80
2019-04-10T16:16:50.837Z,1.70
2019-04-10T16:19:37.285Z,1.90
2019-04-10T16:22:10.791Z,1.70
2019-04-10T16:24:38.819Z,2.00
2019-04-10T16:27:06.022Z,1.70
2019-04-10T16:29:33.053Z,1.73
2019-04-10T16:32:00.148Z,1.90
2019-04-10T16:34:27.161Z,2.10
2019-04-10T16:36:54.273Z,1.87
2019-04-10T16:39:22.211Z,2.00
2019-04-10T16:41:50.345Z,2.30
2019-04-10T16:44:17.421Z,2.23
2019-04-10T16:46:45.159Z,2.07
2019-04-10T16:49:12.773Z,1.80
2019-04-10T16:51:40.550Z,1.67
2019-04-10T16:54:08.375Z,1.50
2019-04-10T16:56:36.019Z,1.70
2019-04-10T16:59:03.151Z,1.80
2019-04-10T17:01:30.945Z,1.80
2019-04-10T17:03:58.621Z,1.70
2019-04-10T17:06:26.157Z,1.63
2019-04-10T17:08:54.395Z,1.77
2019-04-10T17:11:21.521Z,1.87
2019-04-10T17:13:48.914Z,2.00
2019-04-10T17:16:16.025Z,2.07
2019-04-10T17:18:43.459Z,1.77
2019-04-10T17:21:11.116Z,1.60
2019-04-10T17:23:38.253Z,1.60
2019-04-10T17:26:06.571Z,1.80
2019-04-10T17:28:34.529Z,1.80
2019-04-10T17:31:02.363Z,1.50
2019-04-10T17:33:29.996Z,2.00
2019-04-10T17:35:58.066Z,1.57
2019-04-10T17:38:25.196Z,1.90
2019-04-10T17:40:55.601Z,1.70
2019-04-10T17:43:21.103Z,1.60
2019-04-10T17:45:48.951Z,2.30
2019-04-10T17:48:16.102Z,1.80
2019-04-10T17:50:43.682Z,1.60
2019-04-10T17:53:11.570Z,2.00
2019-04-10T17:55:39.699Z,1.50
2019-04-10T17:58:07.444Z,1.40
2019-04-10T18:00:47.328Z,1.60
2019-04-10T18:03:17.936Z,1.67
2019-04-10T18:05:43.208Z,1.70
2019-04-10T18:08:10.554Z,1.90
2019-04-10T18:10:44.711Z,1.70
2019-04-10T18:13:06.609Z,2.10
2019-04-10T18:15:33.827Z,2.93
2019-04-10T18:18:00.949Z,2.67
2019-04-10T18:20:29.224Z,3.10
2019-04-10T18:22:56.298Z,2.90
2019-04-10T18:25:29.770Z,1.83
2019-04-10T18:27:57.014Z,1.73
2019-04-10T18:30:24.101Z,2.07
2019-04-10T18:32:51.572Z,2.50
2019-04-10T18:35:19.542Z,1.90
2019-04-10T18:37:50.286Z,1.83
2019-04-10T18:40:17.662Z,1.93
2019-04-10T18:42:47.466Z,1.60
2019-04-10T18:45:14.689Z,2.10
2019-04-10T18:47:41.866Z,2.70
2019-04-10T18:50:09.882Z,2.40
2019-04-10T18:52:37.356Z,3.07
2019-04-10T18:55:04.495Z,3.77
2019-04-10T18:57:35.677Z,3.17
2019-04-10T19:00:21.841Z,3.13
2019-04-10T19:03:05.450Z,2.83
2019-04-10T19:05:36.794Z,3.23
2019-04-10T19:08:04.957Z,3.33
2019-04-10T19:10:32.704Z,2.67
2019-04-10T19:13:00.004Z,3.20
2019-04-10T19:15:28.761Z,2.87
2019-04-10T19:17:57.576Z,3.20
2019-04-10T19:20:25.569Z,3.20
2019-04-10T19:22:52.899Z,2.70
2019-04-10T19:25:20.979Z,2.83
2019-04-10T19:27:48.732Z,3.10
2019-04-10T19:30:35.259Z,3.93
2019-04-10T19:33:02.780Z,3.50
2019-04-10T19:35:31.073Z,3.37
2019-04-10T19:38:11.483Z,3.50
2019-04-10T19:40:40.259Z,2.40
2019-04-10T19:43:15.850Z,3.30
2019-04-10T19:45:48.024Z,3.00
2019-04-10T19:48:19.223Z,2.47
2019-04-10T19:50:47.774Z,2.57
2019-04-10T19:53:24.805Z,2.60
2019-04-10T19:55:52.028Z,2.70
2019-04-10T19:58:26.011Z,2.80
2019-04-10T20:00:59.487Z,2.87
2019-04-10T20:03:27.802Z,2.37
2019-04-10T20:05:55.555Z,2.73
2019-04-10T20:08:33.384Z,2.30
2019-04-10T20:11:02.359Z,3.20
2019-04-10T20:13:30.394Z,2.57
2019-04-10T20:15:58.556Z,2.07
2019-04-10T20:18:26.529Z,2.77
2019-04-10T20:20:53.622Z,2.77
2019-04-10T20:23:21.572Z,2.73
2019-04-10T20:25:48.669Z,2.67
2019-04-10T20:28:16.360Z,2.90
2019-04-10T20:30:44.507Z,3.20
2019-04-10T20:33:11.593Z,2.67
2019-04-10T20:35:38.596Z,3.17
2019-04-10T20:38:05.557Z,2.30
2019-04-10T20:40:32.607Z,2.23
2019-04-10T20:42:59.600Z,2.30
2019-04-10T20:45:26.737Z,2.40
2019-04-10T20:47:53.979Z,2.23
2019-04-10T20:50:21.191Z,1.90
2019-04-10T20:52:48.334Z,2.53
2019-04-10T20:55:15.423Z,2.33
2019-04-10T20:57:43.677Z,2.30
2019-04-10T21:00:18.205Z,2.63
2019-04-10T21:02:45.352Z,2.17
2019-04-10T21:05:16.442Z,2.00
2019-04-10T21:07:43.960Z,2.43
2019-04-10T21:10:11.053Z,2.00
2019-04-10T21:12:38.045Z,2.23
2019-04-10T21:15:05.519Z,2.17
2019-04-10T21:17:32.616Z,2.60
2019-04-10T21:20:00.059Z,2.23
2019-04-10T21:22:27.223Z,2.20
2019-04-10T21:24:54.246Z,2.73
2019-04-10T21:27:21.276Z,2.47
2019-04-10T21:29:54.728Z,2.07
2019-04-10T21:32:32.431Z,2.00
2019-04-10T21:34:59.750Z,2.20
2019-04-10T21:37:26.775Z,2.17
2019-04-10T21:39:54.179Z,1.80
2019-04-10T21:42:23.864Z,2.13
2019-04-10T21:44:51.237Z,2.60
2019-04-10T21:47:19.383Z,2.50
2019-04-10T21:49:46.545Z,2.40
2019-04-10T21:52:14.313Z,1.90
2019-04-10T21:54:49.656Z,2.60
2019-04-10T21:57:10.885Z,2.77
2019-04-10T21:59:38.929Z,2.00
2019-04-10T22:02:06.871Z,1.93
2019-04-10T22:04:35.024Z,2.47
2019-04-10T22:07:18.939Z,2.17
2019-04-10T22:09:57.229Z,2.70
2019-04-10T22:12:31.698Z,2.30
2019-04-10T22:14:55.993Z,1.87
2019-04-10T22:17:23.308Z,1.80
2019-04-10T22:19:52.755Z,1.70
2019-04-10T22:22:20.317Z,2.13
2019-04-10T22:24:48.508Z,1.77
2019-04-10T22:27:17.037Z,2.10
2019-04-10T22:29:44.776Z,2.00
2019-04-10T22:32:12.239Z,2.23
2019-04-10T22:34:39.494Z,2.20
2019-04-10T22:37:06.751Z,2.40
2019-04-10T22:39:34.199Z,2.53
2019-04-10T22:42:01.554Z,2.07
2019-04-10T22:44:36.717Z,2.07
2019-04-10T22:46:58.708Z,2.10
2019-04-10T22:49:26.610Z,2.00
2019-04-10T22:51:56.907Z,2.00
2019-04-10T22:54:24.264Z,2.17
2019-04-10T22:56:51.666Z,2.13
2019-04-10T22:59:18.822Z,2.40
2019-04-10T23:01:58.042Z,2.40
2019-04-10T23:04:14.671Z,2.90
2019-04-10T23:06:41.796Z,2.20
2019-04-10T23:09:10.215Z,1.83
2019-04-10T23:11:41.861Z,2.20
2019-04-10T23:14:06.793Z,2.23
2019-04-10T23:16:34.077Z,2.27
2019-04-10T23:19:01.577Z,3.00
2019-04-10T23:21:28.693Z,2.27
2019-04-10T23:23:55.681Z,2.43
2019-04-10T23:26:22.879Z,2.07
2019-04-10T23:28:50.345Z,1.83
2019-04-10T23:31:17.422Z,2.07
2019-04-10T23:33:44.482Z,2.00
2019-04-10T23:36:11.501Z,1.77
2019-04-10T23:38:39.602Z,2.60
2019-04-10T23:41:07.439Z,1.80
2019-04-10T23:43:35.665Z,2.00
2019-04-10T23:46:04.151Z,1.80
2019-04-10T23:48:31.576Z,1.77
2019-04-10T23:50:58.829Z,1.73
2019-04-10T23:53:26.679Z,1.90
2019-04-10T23:55:54.503Z,2.30
2019-04-10T23:58:22.235Z,2.20
